Time;durP1;ratioP1;P1;durP2;ratioP2;P2;SDS_P1;SDS_P2;PMS_P1;PMS_P2;Temp;Humidity;BMP_temperature;BMP_pressure;BME280_temperature;BME280_humidity;BME280_pressure;Samples;Min_cycle;Max_cycle;Signal;HPM_P1;HPM_P2
2021/09/30 06:10:52;;;;;;;10.93;2.33;;;9.00;99.90;;;;;;4906858;29;20039;-84
2021/09/30 06:13:45;;;;;;;15.68;3.00;;;9.10;99.90;;;;;;4901033;29;20462;-84
2021/09/30 06:16:16;;;;;;;20.02;3.25;;;9.10;99.90;;;;;;4906947;29;20104;-84
2021/09/30 06:18:43;;;;;;;10.95;3.15;;;9.20;99.90;;;;;;4914746;29;20055;-82
2021/09/30 06:21:10;;;;;;;10.93;3.00;;;9.20;99.90;;;;;;4913939;29;20100;-82
2021/09/30 06:23:38;;;;;;;9.30;2.45;;;9.20;99.90;;;;;;4914931;29;20048;-82
2021/09/30 06:26:05;;;;;;;11.77;2.85;;;9.30;99.90;;;;;;4897240;29;20080;-82
2021/09/30 06:28:32;;;;;;;17.88;3.25;;;9.30;99.90;;;;;;4916095;29;20048;-83
2021/09/30 06:31:00;;;;;;;15.13;3.20;;;9.40;99.90;;;;;;4899991;29;20556;-83
2021/09/30 06:33:27;;;;;;;14.00;1.85;;;9.50;99.90;;;;;;4913278;29;20075;-83
2021/09/30 06:35:55;;;;;;;13.88;1.88;;;9.50;99.90;;;;;;4914433;29;20100;-83
2021/09/30 06:38:38;;;;;;;7.45;2.03;;;9.50;99.90;;;;;;4899341;29;20104;-84
2021/09/30 06:41:06;;;;;;;6.22;1.58;;;9.60;99.90;;;;;;4897169;29;20150;-82
2021/09/30 06:43:33;;;;;;;10.15;2.60;;;9.60;99.90;;;;;;4897782;29;20056;-82
2021/09/30 06:46:00;;;;;;;24.02;2.47;;;9.70;99.90;;;;;;4915231;29;20100;-83
2021/09/30 06:48:27;;;;;;;15.77;1.88;;;9.70;99.90;;;;;;4912989;29;20469;-83
2021/09/30 06:50:55;;;;;;;10.93;1.77;;;9.80;99.90;;;;;;4913709;29;20173;-83
2021/09/30 06:53:22;;;;;;;8.48;2.03;;;9.80;99.90;;;;;;4913600;29;20079;-83
2021/09/30 06:55:49;;;;;;;16.63;2.17;;;9.90;99.90;;;;;;4914569;29;20588;-83
2021/09/30 06:58:16;;;;;;;12.02;2.92;;;9.90;99.90;;;;;;4913964;29;20175;-83
2021/09/30 07:00:43;;;;;;;11.20;2.03;;;10.00;99.90;;;;;;4913973;29;20100;-83
2021/09/30 07:03:11;;;;;;;9.65;1.55;;;10.10;99.90;;;;;;4913482;29;20083;-83
2021/09/30 07:05:40;;;;;;;8.73;1.67;;;10.20;99.90;;;;;;4910399;29;20052;-83
2021/09/30 07:08:13;;;;;;;15.90;2.80;;;10.30;99.90;;;;;;4913902;29;20054;-83
2021/09/30 07:10:46;;;;;;;14.00;1.90;;;10.30;99.90;;;;;;4899660;29;20086;-84
2021/09/30 07:13:14;;;;;;;15.82;2.53;;;10.40;99.90;;;;;;4913742;29;20048;-83
2021/09/30 07:15:42;;;;;;;11.00;2.35;;;10.40;99.90;;;;;;4904325;29;20047;-83
2021/09/30 07:18:14;;;;;;;11.45;1.90;;;10.50;99.90;;;;;;4886891;29;20052;-83
2021/09/30 07:20:50;;;;;;;7.68;1.30;;;10.60;99.90;;;;;;4886013;29;20104;-83
2021/09/30 07:23:22;;;;;;;9.13;1.70;;;10.70;99.90;;;;;;4901682;29;20048;-83
2021/09/30 07:25:50;;;;;;;6.72;0.85;;;10.90;99.90;;;;;;4900414;29;20099;-83
2021/09/30 07:28:19;;;;;;;7.45;1.08;;;11.00;99.90;;;;;;4891392;29;20064;-83
2021/09/30 07:30:48;;;;;;;7.55;1.40;;;11.10;99.90;;;;;;4915690;29;20503;-84
2021/09/30 07:33:21;;;;;;;;;;;11.20;99.90;;;;;;4916230;29;20048;-82
2021/09/30 07:35:48;;;;;;;;;;;11.30;99.90;;;;;;4901492;29;19923;-83
2021/09/30 07:38:18;;;;;;;;;;;11.40;99.90;;;;;;4906349;29;19930;-83
2021/09/30 07:40:44;;;;;;;;;;;11.50;99.90;;;;;;4877195;29;20445;-83
2021/09/30 07:43:15;;;;;;;;;;;11.60;99.90;;;;;;4867649;29;20456;-83
2021/09/30 07:45:42;;;;;;;;;;;11.70;99.90;;;;;;4849609;29;20397;-83
2021/09/30 07:48:10;;;;;;;;;;;11.80;99.90;;;;;;4857226;29;19924;-83
2021/09/30 07:50:39;;;;;;;;;;;11.90;99.90;;;;;;4872315;29;19924;-83
2021/09/30 07:53:06;;;;;;;;;;;12.00;99.90;;;;;;4876762;29;19955;-83
2021/09/30 07:55:33;;;;;;;;;;;12.10;99.90;;;;;;4877190;29;19932;-84
2021/09/30 07:58:00;;;;;;;;;;;12.30;99.90;;;;;;4878002;29;19924;-84
2021/09/30 08:00:27;;;;;;;;;;;12.40;99.90;;;;;;4876056;29;20356;-84
2021/09/30 08:02:54;;;;;;;;;;;12.50;99.90;;;;;;4876488;29;19923;-85
2021/09/30 08:05:21;;;;;;;;;;;12.60;99.90;;;;;;4876034;29;19930;-84
2021/09/30 08:07:47;;;;;;;;;;;12.80;99.90;;;;;;4876818;29;19931;-84
2021/09/30 08:10:14;;;;;;;;;;;12.90;99.90;;;;;;4860831;29;19924;-84
2021/09/30 08:12:41;;;;;;;;;;;13.00;99.90;;;;;;4911561;29;19970;-83
2021/09/30 08:15:11;;;;;;;;;;;13.20;99.90;;;;;;4898939;29;20380;-84
2021/09/30 08:17:38;;;;;;;;;;;13.40;99.90;;;;;;4915981;29;19930;-84
2021/09/30 08:20:05;;;;;;;;;;;13.50;99.90;;;;;;4899452;29;19930;-84
2021/09/30 08:22:32;;;;;;;;;;;13.70;99.90;;;;;;4915997;29;20008;-83
2021/09/30 08:24:58;;;;;;;;;;;13.90;99.90;;;;;;4917123;29;19979;-84
2021/09/30 08:27:25;;;;;;;;;;;14.00;99.90;;;;;;4915843;29;19923;-83
2021/09/30 08:29:52;;;;;;;;;;;14.20;99.90;;;;;;4916247;29;19923;-83
2021/09/30 08:32:19;;;;;;;;;;;14.40;99.90;;;;;;4915392;29;19980;-83
2021/09/30 08:34:46;;;;;;;;;;;14.60;99.90;;;;;;4916589;29;20033;-84
2021/09/30 08:37:13;;;;;;;;;;;14.80;99.90;;;;;;4915367;29;19927;-84
2021/09/30 08:39:40;;;;;;;;;;;15.00;99.90;;;;;;4899789;29;20392;-83
2021/09/30 08:42:07;;;;;;;;;;;15.10;99.90;;;;;;4913932;29;19927;-83
2021/09/30 08:44:34;;;;;;;;;;;15.30;99.90;;;;;;4915383;29;19970;-83
2021/09/30 08:47:03;;;;;;;;;;;15.40;99.90;;;;;;4914736;29;19974;-83
2021/09/30 08:49:30;;;;;;;;;;;15.60;99.90;;;;;;4888517;29;19930;-83
2021/09/30 08:51:58;;;;;;;;;;;15.70;99.90;;;;;;4911249;29;19923;-83
2021/09/30 08:54:25;;;;;;;;;;;15.80;99.90;;;;;;4888763;29;20142;-83
2021/09/30 08:56:53;;;;;;;;;;;15.90;99.90;;;;;;4893566;29;20029;-84
2021/09/30 08:59:26;;;;;;;;;;;16.00;99.90;;;;;;4899401;29;19987;-84
2021/09/30 09:02:11;;;;;;;;;;;16.10;99.90;;;;;;4914971;29;20541;-83
2021/09/30 09:04:50;;;;;;;;;;;16.10;99.90;;;;;;4901566;29;19927;-84
2021/09/30 09:07:23;;;;;;;;;;;16.20;99.90;;;;;;4911069;29;19923;-83
2021/09/30 09:15:09;;;;;;;;;;;16.40;99.90;;;;;;5982449;23;19933;-84
2021/09/30 09:17:40;;;;;;;;;;;16.50;99.90;;;;;;4898417;29;19978;-83
2021/09/30 09:20:07;;;;;;;;;;;16.50;99.90;;;;;;4897529;29;19950;-83
2021/09/30 09:22:43;;;;;;;;;;;16.60;99.90;;;;;;4884485;29;20530;-83
2021/09/30 09:25:11;;;;;;;;;;;16.60;99.90;;;;;;4914908;29;19975;-84
2021/09/30 09:27:56;;;;;;;;;;;16.70;99.90;;;;;;4915485;29;19951;-84
2021/09/30 09:30:29;;;;;;;;;;;16.80;99.90;;;;;;4913793;29;20684;-84
2021/09/30 09:33:04;;;;;;;;;;;16.80;99.90;;;;;;4914738;29;19927;-84
2021/09/30 09:35:59;;;;;;;;;;;16.90;99.90;;;;;;4904527;29;19930;-84
2021/09/30 09:38:28;;;;;;;;;;;17.00;99.90;;;;;;4901575;29;19930;-84
2021/09/30 09:41:05;;;;;;;;;;;17.10;99.90;;;;;;4905301;29;19926;-83
2021/09/30 09:43:52;;;;;;;;;;;17.20;99.90;;;;;;4897681;29;19986;-83
2021/09/30 09:46:24;;;;;;;;;;;17.30;99.90;;;;;;4895845;29;19923;-84
2021/09/30 09:49:06;;;;;;;;;;;17.50;99.90;;;;;;4897761;29;20307;-84
2021/09/30 09:51:47;;;;;;;;;;;17.50;99.90;;;;;;4897653;29;20391;-85
2021/09/30 09:54:16;;;;;;;;;;;17.50;99.90;;;;;;4907512;29;20406;-84
2021/09/30 09:56:45;;;;;;;;;;;17.50;99.90;;;;;;4888963;29;19923;-84
2021/09/30 09:59:14;;;;;;;;;;;17.50;99.90;;;;;;4910823;29;19927;-83
2021/09/30 10:01:45;;;;;;;;;;;17.50;99.90;;;;;;4901750;29;19931;-84
2021/09/30 10:04:17;;;;;;;;;;;17.50;99.90;;;;;;4897522;29;19929;-84
2021/09/30 10:06:45;;;;;;;;;;;17.60;99.90;;;;;;4914796;29;19983;-84
2021/09/30 10:09:16;;;;;;;;;;;17.60;99.90;;;;;;4888493;29;19930;-84
2021/09/30 10:11:44;;;;;;;;;;;17.60;99.90;;;;;;4897500;29;19979;-83
2021/09/30 10:14:12;;;;;;;;;;;17.60;99.90;;;;;;4887075;29;19923;-83
2021/09/30 10:16:47;;;;;;;;;;;17.50;99.90;;;;;;4893775;29;19931;-84
2021/09/30 10:19:15;;;;;;;;;;;17.50;99.90;;;;;;4900369;29;19970;-84
2021/09/30 10:21:46;;;;;;;;;;;17.50;99.90;;;;;;4895628;29;19952;-84
2021/09/30 10:24:15;;;;;;;;;;;17.60;99.90;;;;;;4894142;29;19931;-84
2021/09/30 10:26:45;;;;;;;;;;;17.70;99.90;;;;;;4891073;29;19975;-84
2021/09/30 10:29:31;;;;;;;;;;;17.80;99.90;;;;;;4899562;29;19923;-83
2021/09/30 10:32:04;;;;;;;;;;;17.80;99.90;;;;;;4882433;29;20414;-85
2021/09/30 10:34:44;;;;;;;;;;;17.90;99.90;;;;;;4880819;29;19923;-84
2021/09/30 10:37:27;;;;;;;;;;;17.90;99.90;;;;;;4892199;29;19923;-84
2021/09/30 10:40:21;;;;;;;;;;;18.00;99.90;;;;;;4895404;29;20316;-84
2021/09/30 10:42:55;;;;;;;;;;;18.00;99.90;;;;;;4892021;29;20349;-86
2021/09/30 10:45:45;;;;;;;;;;;18.20;99.90;;;;;;4894489;29;19959;-84
2021/09/30 10:48:26;;;;;;;;;;;18.30;99.90;;;;;;4890221;29;19923;-84
2021/09/30 10:51:05;;;;;;;;;;;18.40;99.90;;;;;;4892883;29;19928;-84
2021/09/30 10:53:44;;;;;;;;;;;18.50;99.90;;;;;;4884553;29;19923;-84
2021/09/30 10:56:29;;;;;;;;;;;18.50;99.90;;;;;;4894305;29;19934;-85
2021/09/30 10:59:00;;;;;;;;;;;18.40;99.90;;;;;;4894989;29;19933;-84
2021/09/30 11:01:33;;;;;;;;;;;18.40;99.90;;;;;;4893306;29;19936;-84
2021/09/30 11:04:02;;;;;;;;;;;18.30;99.90;;;;;;4894809;29;20053;-83
2021/09/30 11:06:34;;;;;;;;;;;18.40;99.90;;;;;;4892930;29;20400;-84
2021/09/30 11:09:14;;;;;;;;;;;18.40;99.90;;;;;;4894624;29;19928;-84
2021/09/30 11:11:46;;;;;;;;;;;18.50;99.90;;;;;;4894393;29;19935;-83
2021/09/30 11:14:14;;;;;;;;;;;18.60;99.90;;;;;;4880429;29;20353;-84
2021/09/30 11:17:02;;;;;;;;;;;18.70;99.90;;;;;;4907757;29;19930;-84
2021/09/30 11:19:48;;;;;;;;;;;18.70;99.90;;;;;;4899133;29;19927;-83
2021/09/30 11:22:30;;;;;;;;;;;18.70;99.90;;;;;;4913270;29;19923;-84
2021/09/30 11:24:57;;;;;;;;;;;18.70;99.90;;;;;;4878158;29;19991;-84
2021/09/30 11:27:34;;;;;;;;;;;18.70;99.90;;;;;;4911792;29;20337;-84
2021/09/30 11:30:17;;;;;;;;;;;18.70;99.90;;;;;;4913364;29;19927;-84
2021/09/30 11:32:54;;;;;;;;;;;18.80;99.90;;;;;;4896459;29;19975;-84
2021/09/30 11:35:21;;;;;;;;;;;18.90;99.90;;;;;;4913466;29;19970;-85
2021/09/30 11:37:49;;;;;;;;;;;19.00;99.90;;;;;;4905881;29;19943;-84
2021/09/30 11:40:18;;;;;;;;;;;19.00;99.90;;;;;;4910281;29;19927;-84
2021/09/30 11:42:47;;;;;;;;;;;19.10;99.90;;;;;;5856464;23;19922;-83
2021/09/30 11:45:15;;;;;;;;;;;19.10;99.90;;;;;;4920621;29;19927;-85
2021/09/30 11:47:43;;;;;;;;;;;19.00;99.90;;;;;;4905908;29;19934;-85
2021/09/30 11:50:21;;;;;;;;;;;19.00;99.90;;;;;;4890491;29;19924;-84
2021/09/30 11:53:01;;;;;;;;;;;19.00;99.90;;;;;;4899644;29;19971;-85
2021/09/30 11:55:29;;;;;;;;;;;19.00;99.90;;;;;;4892230;29;19930;-84
2021/09/30 11:58:04;;;;;;;;;;;19.10;99.90;;;;;;4892792;29;20347;-83
2021/09/30 12:00:33;;;;;;;;;;;19.00;99.90;;;;;;4885717;29;19927;-84
2021/09/30 12:03:16;;;;;;;;;;;19.10;99.90;;;;;;4902235;29;19925;-84
2021/09/30 12:05:54;;;;;;;;;;;19.10;99.90;;;;;;4890826;29;20363;-84
2021/09/30 12:08:21;;;;;;;;;;;19.20;99.90;;;;;;4910578;29;19927;-83
2021/09/30 12:10:56;;;;;;;;;;;19.10;99.90;;;;;;4899499;29;20395;-83
2021/09/30 12:13:23;;;;;;;;;;;19.10;99.90;;;;;;4912729;29;19958;-83
2021/09/30 12:15:50;;;;;;;;;;;19.00;99.90;;;;;;4885338;29;20296;-84
2021/09/30 12:18:18;;;;;;;;;;;19.00;99.90;;;;;;4905006;29;19983;-83
2021/09/30 12:20:54;;;;;;;;;;;19.00;99.90;;;;;;4905811;29;19979;-84
2021/09/30 12:23:21;;;;;;;;;;;19.10;99.90;;;;;;4904536;29;20403;-84
2021/09/30 12:25:48;;;;;;;;;;;19.10;99.90;;;;;;4902890;29;20017;-83
2021/09/30 12:28:15;;;;;;;;;;;19.10;99.90;;;;;;4900476;29;19923;-83
2021/09/30 12:30:44;;;;;;;;;;;19.10;99.90;;;;;;4904430;29;19923;-83
2021/09/30 12:33:11;;;;;;;;;;;19.20;99.90;;;;;;4905187;29;19923;-84
2021/09/30 12:35:40;;;;;;;;;;;19.20;99.90;;;;;;4905598;29;20317;-84
2021/09/30 12:38:17;;;;;;;;;;;19.20;99.90;;;;;;4900585;29;19927;-84
2021/09/30 12:40:46;;;;;;;;;;;19.20;99.90;;;;;;4895699;29;19927;-84
2021/09/30 12:43:19;;;;;;;;;;;19.20;99.90;;;;;;4884103;29;19923;-84
2021/09/30 12:46:02;;;;;;;;;;;19.20;99.90;;;;;;4903455;29;19975;-85
2021/09/30 12:48:30;;;;;;;;;;;19.20;99.90;;;;;;4888388;29;19923;-84
2021/09/30 12:51:08;;;;;;;;;;;19.20;99.90;;;;;;4888255;29;19928;-84
2021/09/30 12:53:42;;;;;;;;;;;19.20;99.90;;;;;;4877482;29;19927;-83
2021/09/30 12:56:18;;;;;;;;;;;19.10;99.90;;;;;;4910389;29;19923;-84
2021/09/30 12:58:50;;;;;;;;;;;19.10;99.90;;;;;;4901761;29;19930;-84
2021/09/30 13:01:18;;;;;;;;;;;19.00;99.90;;;;;;4874787;29;19949;-83
2021/09/30 13:04:04;;;;;;;;;;;19.00;99.90;;;;;;4886976;29;19923;-84
2021/09/30 13:06:41;;;;;;;;;;;19.00;99.90;;;;;;4894775;29;19962;-83
2021/09/30 13:09:23;;;;;;;;;;;19.00;99.90;;;;;;4890723;29;19971;-84
2021/09/30 13:11:53;;;;;;;;;;;19.10;99.90;;;;;;4894988;29;19923;-84
2021/09/30 13:14:28;;;;;;;;;;;19.20;99.90;;;;;;4903433;29;19929;-85
2021/09/30 13:16:54;;;;;;;;;;;19.20;99.90;;;;;;4901637;29;19931;-84
2021/09/30 13:19:38;;;;;;;;;;;19.20;99.90;;;;;;4898071;29;19927;-84
2021/09/30 13:22:10;;;;;;;;;;;19.30;99.90;;;;;;4899400;29;19924;-84
2021/09/30 13:24:39;;;;;;;;;;;19.30;99.90;;;;;;4902870;29;19923;-84
2021/09/30 13:27:10;;;;;;;;;;;19.30;99.90;;;;;;4886960;29;19927;-83
2021/09/30 13:29:43;;;;;;;;;;;19.30;99.90;;;;;;4888193;29;19924;-84
2021/09/30 13:32:10;;;;;;;;;;;19.30;99.90;;;;;;4892687;29;19923;-84
2021/09/30 13:34:38;;;;;;;;;;;19.20;99.90;;;;;;4900309;29;19930;-83
2021/09/30 13:37:07;;;;;;;;;;;19.20;99.90;;;;;;4910573;29;19922;-83
2021/09/30 13:39:33;;;;;;;;;;;19.20;99.90;;;;;;4904804;29;19979;-84
2021/09/30 13:42:10;;;;;;;;;;;19.00;99.90;;;;;;4906952;29;19928;-84
2021/09/30 13:44:36;;;;;;;;;;;19.00;99.90;;;;;;4885625;29;19923;-84
2021/09/30 13:47:04;;;;;;;;;;;19.10;99.90;;;;;;4898712;29;19931;-82
2021/09/30 13:49:37;;;;;;;;;;;19.00;99.90;;;;;;4897081;29;19923;-83
2021/09/30 13:52:05;;;;;;;;;;;19.00;99.90;;;;;;4910838;29;19934;-83
2021/09/30 13:54:33;;;;;;;;;;;19.00;99.90;;;;;;4893126;29;19923;-84
2021/09/30 13:57:00;;;;;;;;;;;19.10;99.90;;;;;;4910579;29;19923;-84
2021/09/30 13:59:28;;;;;;;;;;;19.10;99.90;;;;;;4885483;29;19946;-84
2021/09/30 14:02:21;;;;;;;;;;;19.10;99.90;;;;;;4898721;29;19941;-84
2021/09/30 14:04:48;;;;;;;;;;;19.00;99.90;;;;;;4890341;29;19931;-83
2021/09/30 14:07:20;;;;;;;;;;;19.00;99.90;;;;;;4897378;29;19970;-83
2021/09/30 14:09:47;;;;;;;;;;;19.00;99.90;;;;;;4914473;29;20701;-85
2021/09/30 14:12:14;;;;;;;;;;;18.90;99.90;;;;;;4878636;29;19927;-84
2021/09/30 14:14:46;;;;;;;;;;;18.90;99.90;;;;;;4889827;29;20360;-85
2021/09/30 14:17:13;;;;;;;;;;;18.90;99.90;;;;;;4909899;29;19952;-85
2021/09/30 14:19:39;;;;;;;;;;;18.90;99.90;;;;;;4913254;29;19923;-83
2021/09/30 14:22:07;;;;;;;;;;;18.90;99.90;;;;;;4882629;29;19930;-84
2021/09/30 14:24:34;;;;;;;;;;;18.80;99.90;;;;;;4910048;29;20000;-84
2021/09/30 14:27:02;;;;;;;;;;;18.90;99.90;;;;;;4886867;29;19950;-84
2021/09/30 14:29:30;;;;;;;;;;;18.90;99.90;;;;;;4903335;29;19930;-84
2021/09/30 14:31:57;;;;;;;;;;;18.80;99.90;;;;;;4884886;29;19923;-83
2021/09/30 14:34:23;;;;;;;;;;;18.80;99.90;;;;;;4898569;29;19923;-84
2021/09/30 14:36:50;;;;;;;;;;;18.80;99.90;;;;;;4910214;29;19978;-84
2021/09/30 14:39:17;;;;;;;;;;;18.70;99.90;;;;;;4904988;29;19971;-84
2021/09/30 14:41:44;;;;;;;;;;;18.70;99.90;;;;;;4903407;29;19986;-85
2021/09/30 14:44:11;;;;;;;;;;;18.80;99.90;;;;;;4913324;29;19978;-84
2021/09/30 14:46:38;;;;;;;;;;;18.80;99.90;;;;;;4898134;29;19923;-83
2021/09/30 14:49:05;;;;;;;;;;;18.80;99.90;;;;;;4909830;29;19930;-84
2021/09/30 14:51:32;;;;;;;;;;;18.80;99.90;;;;;;4903383;29;19927;-84
2021/09/30 14:53:59;;;;;;;;;;;18.80;99.90;;;;;;4886449;29;19923;-84
2021/09/30 14:56:26;;;;;;;;;;;18.80;99.90;;;;;;4886084;29;19923;-83
2021/09/30 14:58:53;;;;;;;;;;;18.80;99.90;;;;;;4898521;29;20340;-85
2021/09/30 15:01:22;;;;;;;;;;;18.80;99.90;;;;;;4894966;29;19952;-85
2021/09/30 15:03:49;;;;;;;;;;;18.80;99.90;;;;;;4895704;29;19953;-85
2021/09/30 15:06:16;;;;;;;;;;;18.80;99.90;;;;;;4874476;29;19971;-84
2021/09/30 15:08:45;;;;;;;;;;;18.80;99.90;;;;;;4886103;29;19930;-84
2021/09/30 15:11:12;;;;;;;;;;;18.70;99.90;;;;;;4908921;29;19923;-84
2021/09/30 15:13:39;;;;;;;;;;;18.70;99.90;;;;;;4913778;29;20388;-84
2021/09/30 15:16:08;;;;;;;;;;;18.70;99.90;;;;;;4912312;29;19926;-84
2021/09/30 15:18:50;;;;;;;;;;;18.70;99.90;;;;;;4902274;29;20340;-85
2021/09/30 15:21:24;;;;;;;;;;;18.70;99.90;;;;;;4907035;29;20391;-84
2021/09/30 15:23:55;;;;;;;;;;;18.70;99.90;;;;;;4908233;29;19979;-82
2021/09/30 15:26:25;;;;;;;;;;;18.70;99.90;;;;;;4902361;29;19970;-83
2021/09/30 15:28:53;;;;;;;;;;;18.60;99.90;;;;;;4897980;29;19959;-84
2021/09/30 15:31:21;;;;;;;;;;;18.60;99.90;;;;;;4904854;29;19923;-84
2021/09/30 15:33:48;;;;;;;;;;;18.50;99.90;;;;;;4903346;29;20464;-84
2021/09/30 15:36:16;;;;;;;;;;;18.50;99.90;;;;;;4904421;29;19962;-83
2021/09/30 15:38:43;;;;;;;;;;;18.50;99.90;;;;;;4890299;29;20014;-84
2021/09/30 15:41:10;;;;;;;;;;;18.40;99.90;;;;;;4902405;29;20037;-83
2021/09/30 15:43:46;;;;;;;;;;;18.40;99.90;;;;;;4903906;29;19934;-82
2021/09/30 15:46:13;;;;;;;;;;;18.40;99.90;;;;;;4907648;29;19923;-82
2021/09/30 15:48:42;;;;;;;;;;;18.40;99.90;;;;;;4901516;29;19975;-83
2021/09/30 15:51:10;;;;;;;;;;;18.30;99.90;;;;;;4904212;29;20002;-83
2021/09/30 15:53:39;;;;;;;;;;;18.30;99.90;;;;;;4905702;29;19955;-82
2021/09/30 15:56:06;;;;;;;;;;;18.20;99.90;;;;;;4904795;29;20348;-85
2021/09/30 15:58:34;;;;;;;;;;;18.20;99.90;;;;;;4909778;29;19982;-83
2021/09/30 16:01:03;;;;;;;;;;;18.10;99.90;;;;;;4896301;29;19923;-83
2021/09/30 16:03:33;;;;;;;;;;;18.10;99.90;;;;;;4880484;29;19971;-84
2021/09/30 16:06:03;;;;;;;;;;;18.00;99.90;;;;;;4891923;29;19935;-83
2021/09/30 16:08:30;;;;;;;;;;;18.00;99.90;;;;;;4871980;29;19923;-80
2021/09/30 16:11:03;;;;;;;;;;;18.00;99.90;;;;;;4887750;29;19923;-83
2021/09/30 16:13:32;;;;;;;;;;;18.00;99.90;;;;;;4906598;29;19978;-83
2021/09/30 16:15:59;;;;;;;;;;;17.90;99.90;;;;;;4888153;29;19923;-82
2021/09/30 16:18:35;;;;;;;;;;;17.90;99.90;;;;;;4906007;29;20304;-82
2021/09/30 16:21:05;;;;;;;;;;;17.90;99.90;;;;;;4908084;29;19923;-82
2021/09/30 16:23:38;;;;;;;;;;;17.90;99.90;;;;;;4907795;29;20406;-83
2021/09/30 16:26:08;;;;;;;;;;;17.80;99.90;;;;;;4909334;29;20026;-83
2021/09/30 16:28:35;;;;;;;;;;;17.80;99.90;;;;;;4909389;29;20387;-82
2021/09/30 16:31:03;;;;;;;;;;;17.70;99.90;;;;;;4882554;29;20482;-84
2021/09/30 16:33:30;;;;;;;;;;;17.70;99.90;;;;;;4892406;29;19927;-82
2021/09/30 16:35:59;;;;;;;;;;;17.60;99.90;;;;;;4904604;29;19966;-84
2021/09/30 16:38:26;;;;;;;;;;;17.60;99.90;;;;;;4908443;29;20164;-82
2021/09/30 16:40:53;;;;;;;;;;;17.50;99.90;;;;;;4910205;29;19923;-84
2021/09/30 16:43:21;;;;;;;;;;;17.50;99.90;;;;;;4891825;29;20352;-84
2021/09/30 16:45:48;;;;;;;;;;;17.40;99.90;;;;;;4905472;29;19919;-84
2021/09/30 16:48:15;;;;;;;;;;;17.40;99.90;;;;;;4892572;29;19926;-83
2021/09/30 16:50:42;;;;;;;;;;;17.30;99.90;;;;;;4918302;29;19962;-83
2021/09/30 16:53:10;;;;;;;;;;;17.30;99.90;;;;;;4913471;29;20400;-82
2021/09/30 16:55:37;;;;;;;;;;;17.20;99.90;;;;;;4900077;29;19923;-81
2021/09/30 16:58:03;;;;;;;;;;;17.20;99.90;;;;;;4901492;29;19956;-81
2021/09/30 17:00:33;;;;;;;;;;;17.20;99.90;;;;;;4904212;29;19997;-81
2021/09/30 17:03:01;;;;;;;;;;;17.10;99.90;;;;;;4903960;29;19927;-81
2021/09/30 17:05:28;;;;;;;;;;;17.10;99.90;;;;;;4905365;29;19931;-81
2021/09/30 17:08:24;;;;;;;;;;;17.10;99.90;;;;;;4899145;29;19923;-82
2021/09/30 17:10:51;;;;;;;;;;;17.10;99.90;;;;;;4886045;29;19923;-81
2021/09/30 17:13:32;;;;;;;;;;;17.10;99.90;;;;;;4892337;29;20010;-82
2021/09/30 17:16:00;;;;;;;;;;;17.10;99.90;;;;;;4885334;29;19927;-81
2021/09/30 17:18:28;;;;;;;;;;;17.10;99.90;;;;;;4904016;29;19927;-81
2021/09/30 17:20:57;;;;;;;;;;;17.10;99.90;;;;;;4904302;29;19923;-82
2021/09/30 17:23:23;;;;;;;;;;;17.10;99.90;;;;;;4904534;29;20007;-80
2021/09/30 17:25:50;;;;;;;;;;;17.10;99.90;;;;;;4901717;29;20355;-83
2021/09/30 17:28:17;;;;;;;;;;;17.10;99.90;;;;;;4898802;29;19931;-83
2021/09/30 17:30:44;;;;;;;;;;;17.10;99.90;;;;;;4894602;29;19922;-85
2021/09/30 17:33:11;;;;;;;;;;;17.00;99.90;;;;;;4906886;29;20026;-84
2021/09/30 17:35:38;;;;;;;;;;;17.00;99.90;;;;;;4904238;29;19975;-81
2021/09/30 17:38:05;;;;;;;;;;;17.00;99.90;;;;;;4902988;29;19930;-81
2021/09/30 17:40:31;;;;;;;;;;;17.00;99.90;;;;;;4882910;29;19978;-81
2021/09/30 17:42:58;;;;;;;;;;;17.00;99.90;;;;;;4901528;29;19963;-81
2021/09/30 17:45:25;;;;;;;;;;;16.90;99.90;;;;;;4906654;29;19934;-82
2021/09/30 17:47:54;;;;;;;;;;;16.90;99.90;;;;;;4892994;29;19923;-80
2021/09/30 17:50:21;;;;;;;;;;;16.90;99.90;;;;;;4903111;29;20384;-78
2021/09/30 17:52:48;;;;;;;;;;;16.90;99.90;;;;;;4901107;29;20009;-80
2021/09/30 17:55:15;;;;;;;;;;;16.80;99.90;;;;;;4899307;29;19971;-80
2021/09/30 17:57:42;;;;;;;;;;;16.80;99.90;;;;;;4909405;29;20400;-81
2021/09/30 18:00:12;;;;;;;;;;;16.80;99.90;;;;;;4906594;29;19927;-81
2021/09/30 18:02:39;;;;;;;;;;;16.80;99.90;;;;;;4887268;29;19923;-82
2021/09/30 18:05:06;;;;;;;;;;;16.70;99.90;;;;;;4902683;29;19927;-81
2021/09/30 18:07:40;;;;;;;;;;;16.80;99.90;;;;;;4897629;29;19986;-81
2021/09/30 18:10:09;;;;;;;;;;;16.70;99.90;;;;;;4904928;29;20369;-80
2021/09/30 18:12:36;;;;;;;;;;;16.70;99.90;;;;;;4909997;29;20307;-81
2021/09/30 18:15:04;;;;;;;;;;;16.70;99.90;;;;;;4893809;29;19923;-80
2021/09/30 18:17:30;;;;;;;;;;;16.70;99.90;;;;;;4910057;29;20418;-81
2021/09/30 18:19:59;;;;;;;;;;;16.70;99.90;;;;;;4894595;29;19934;-80
2021/09/30 18:22:28;;;;;;;;;;;16.70;99.90;;;;;;4908432;29;20455;-79
2021/09/30 18:27:22;;;;;;;;;;;16.60;99.90;;;;;;4913081;29;20478;-79
2021/09/30 18:29:52;;;;;;;;;;;16.60;99.90;;;;;;4916522;29;19934;-79
2021/09/30 18:32:19;;;;;;;;;;;16.60;99.90;;;;;;4917860;29;19926;-80
2021/09/30 18:34:46;;;;;;;;;;;16.60;99.90;;;;;;4901288;29;19965;-80
2021/09/30 18:37:13;;;;;;;;;;;16.50;99.90;;;;;;4918033;29;19929;-79
2021/09/30 18:39:43;;;;;;;;;;;16.50;99.90;;;;;;4896549;29;20319;-80
2021/09/30 18:42:10;;;;;;;;;;;16.50;99.90;;;;;;4895383;29;20323;-79
2021/09/30 18:44:43;;;;;;;;;;;16.50;99.90;;;;;;4890457;29;19926;-79
2021/09/30 18:47:16;;;;;;;;;;;16.40;99.90;;;;;;4894343;29;20519;-82
2021/09/30 18:49:45;;;;;;;;;;;16.40;99.90;;;;;;4898278;29;19933;-81
2021/09/30 18:52:12;;;;;;;;;;;16.40;99.90;;;;;;4919702;29;19934;-81
2021/09/30 18:54:39;;;;;;;;;;;16.40;99.90;;;;;;4908681;29;20376;-82
2021/09/30 18:57:08;;;;;;;;;;;16.40;99.90;;;;;;4908442;29;20288;-81
2021/09/30 18:59:35;;;;;;;;;;;16.40;99.90;;;;;;4903967;29;20400;-81
2021/09/30 19:02:02;;;;;;;;;;;16.40;99.90;;;;;;4909350;29;19931;-81
2021/09/30 19:04:28;;;;;;;;;;;16.40;99.90;;;;;;4907279;29;19990;-81
2021/09/30 19:06:56;;;;;;;;;;;16.40;99.90;;;;;;4897280;29;19946;-81
2021/09/30 19:09:23;;;;;;;;;;;16.30;99.90;;;;;;4893776;29;19927;-81
2021/09/30 19:11:53;;;;;;;;;;;16.30;99.90;;;;;;4909156;29;20348;-82
2021/09/30 19:14:21;;;;;;;;;;;16.30;99.90;;;;;;4908452;29;19958;-81
2021/09/30 19:16:48;;;;;;;;;;;16.30;99.90;;;;;;4895731;29;20054;-81
2021/09/30 19:19:15;;;;;;;;;;;16.40;99.90;;;;;;4896143;29;19927;-81
2021/09/30 19:21:41;;;;;;;;;;;16.40;99.90;;;;;;4909959;29;19927;-81
2021/09/30 19:24:08;;;;;;;;;;;16.40;99.90;;;;;;4891302;29;20030;-82
2021/09/30 19:26:35;;;;;;;;;;;16.40;99.90;;;;;;4899801;29;19931;-81
2021/09/30 19:29:05;;;;;;;;;;;16.40;99.90;;;;;;4894504;29;19923;-81
2021/09/30 19:31:35;;;;;;;;;;;16.40;99.90;;;;;;4898106;29;19974;-81
2021/09/30 19:34:05;;;;;;;;;;;16.40;99.90;;;;;;4917510;29;19927;-81
2021/09/30 19:36:37;;;;;;;;;;;16.40;99.90;;;;;;4898338;29;19923;-81
2021/09/30 19:39:05;;;;;;;;;;;16.40;99.90;;;;;;4877627;29;19961;-84
2021/09/30 19:41:32;;;;;;;;;;;16.30;99.90;;;;;;4899361;29;19954;-85
2021/09/30 19:44:04;;;;;;;;;;;16.40;99.90;;;;;;4895455;29;20301;-85
2021/09/30 19:46:32;;;;;;;;;;;16.30;99.90;;;;;;4899529;29;24318;-84
2021/09/30 19:48:59;;;;;;;;;;;16.40;99.90;;;;;;4902227;29;20575;-85
2021/09/30 19:51:26;;;;;;;;;;;16.40;99.90;;;;;;4891143;29;19927;-85
2021/09/30 19:53:53;;;;;;;;;;;16.30;99.90;;;;;;4906368;29;19934;-83
2021/09/30 19:56:20;;;;;;;;;;;16.40;99.90;;;;;;4909551;29;20386;-84
2021/09/30 19:58:47;;;;;;;;;;;16.40;99.90;;;;;;4913848;29;19931;-83
2021/09/30 20:01:14;;;;;;;;;;;16.40;99.90;;;;;;4899456;29;20008;-85
2021/09/30 20:03:45;;;;;;;;;;;16.40;99.90;;;;;;4901525;29;19927;-83
2021/09/30 20:06:12;;;;;;;;;;;16.40;99.90;;;;;;4893628;29;20496;-83
2021/09/30 20:08:39;;;;;;;;;;;16.40;99.90;;;;;;4909470;29;19927;-83
2021/09/30 20:11:06;;;;;;;;;;;16.40;99.90;;;;;;4912871;29;19927;-82
2021/09/30 20:13:39;;;;;;;;;;;16.40;99.90;;;;;;4909630;29;19927;-83
2021/09/30 20:16:06;;;;;;;;;;;16.40;99.90;;;;;;4916782;29;20388;-83
2021/09/30 20:18:33;;;;;;;;;;;16.40;99.90;;;;;;4919267;29;19938;-82
2021/09/30 20:21:02;;;;;;;;;;;16.40;99.90;;;;;;4914636;29;19926;-81
2021/09/30 20:23:29;;;;;;;;;;;16.40;99.90;;;;;;4916709;29;19963;-82
2021/09/30 20:25:59;;;;;;;;;;;16.40;99.90;;;;;;4901181;29;19970;-82
2021/09/30 20:28:25;;;;;;;;;;;16.40;99.90;;;;;;4913006;29;20311;-82
2021/09/30 20:30:53;;;;;;;;;;;16.40;99.90;;;;;;4920821;29;19938;-82
2021/09/30 20:33:21;;;;;;;;;;;16.40;99.90;;;;;;4919483;29;19931;-82
2021/09/30 20:35:53;;;;;;;;;;;16.40;99.90;;;;;;4899613;29;20029;-82
2021/09/30 20:38:21;;;;;;;;;;;16.50;99.90;;;;;;4906320;29;20018;-83
2021/09/30 20:40:53;;;;;;;;;;;16.40;99.90;;;;;;4917380;29;19927;-82